Plainview, Missouri
Current Conditions -  °F | °C
As of 5:55 AM on Sunday 21 Dec 2014 (Local Time) from KIRK Reporting Station
Haze Haze  
Wind Chill:   Ceiling: 1800
Heat Index:   Visibility: 6mi
Dew Point:   Wind: 7mph
Humidity: 93%   Direction: 160°SSE
Pressure: 30.11"   Gusts: NA
Location:  39.9265°N, 92.4529°W
Report Text: KIRK 211155Z AUTO 16006KT 6SM BR OVC018 03/02 A3011 RMK AO2 SLP206 T00330022 10039 20033 56009
Loading
Personal Weather Stations






























Interactive Weather Map New forecast layout! Learn more

10-Day Weather Forecast

Advertisements
Track Severe Weather on mobile